Puget Sound — WCZ5670 — position and weather

sailwx.info

Track history (hours):
 
Tides and Currents Weather Stations Pressure Air Temp Water Temp Dewpoint Dewpoint Depression Visibility Wind Speed Wind Dir Waves Ship Positions

Puget Sound

Owner: PUGET SOUND PILOTS, SEATTLE, WA. More information available from US FCC via Universal Licensing System and Coast Guard Vessel Documentation Center.

Last reported at 2017-Nov-18 18:11 UTC. Time now 2017-Nov-18 19:42 UTC.
Position N 48°08' W 123°26'.

Length 23 m; draft 1 m.

Type: Pilot. MMSI: 366825190.

Date/timePositionNaut miles runAvg speedWind from/ knotsBaromVisibWave heightAir tempDewpointWater temp
2017-Nov-18 18:11N 48°08' W 123°26'0 0.1
2017-Nov-18 17:41N 48°08' W 123°25'0 0.0
2017-Nov-18 17:29N 48°08' W 123°25'0 0.0
2017-Nov-18 17:00N 48°08' W 123°25'0 0.0
2017-Nov-18 16:29N 48°08' W 123°25'0 0.0
2017-Nov-18 16:00N 48°08' W 123°25'0 0.1
2017-Nov-18 15:30N 48°08' W 123°26'0 0.0
2017-Nov-18 14:59N 48°08' W 123°26'0 0.1
2017-Nov-18 14:30N 48°08' W 123°25'0 0.1
2017-Nov-18 14:00N 48°08' W 123°26'2 5.0
2017-Nov-18 13:30N 48°09' W 123°22'2 4.9
2017-Nov-18 13:00N 48°08' W 123°26'0 0.0
2017-Nov-18 12:29N 48°08' W 123°26'0 0.0
2017-Nov-18 11:59N 48°08' W 123°26'0 0.0
2017-Nov-18 11:24N 48°08' W 123°26'2 6.3
2017-Nov-18 11:00N 48°09' W 123°22'2 4.9
2017-Nov-18 10:30N 48°08' W 123°26'0 0.0
2017-Nov-18 10:00N 48°08' W 123°26'0 0.1
2017-Nov-18 09:30N 48°08' W 123°25'3 5.3
2017-Nov-18 09:00N 48°09' W 123°22'3 5.2
2017-Nov-18 08:30N 48°08' W 123°25'1 2.0
2017-Nov-18 08:00N 48°08' W 123°27'1 2.0
2017-Nov-18 07:30N 48°08' W 123°25'0 0.1
2017-Nov-18 07:01N 48°08' W 123°26'2 4.5
2017-Nov-18 06:29N 48°08' W 123°22'2 4.7
2017-Nov-18 06:00N 48°08' W 123°25'0 0.1
2017-Nov-18 05:30N 48°08' W 123°26'2 4.8
2017-Nov-18 05:01N 48°09' W 123°22'2 4.7
2017-Nov-18 04:30N 48°08' W 123°25'0 0.0
2017-Nov-18 04:00N 48°08' W 123°25'0 0.0
2017-Nov-18 03:30N 48°08' W 123°25'0 0.1
2017-Nov-18 03:00N 48°08' W 123°26'0 0.0
2017-Nov-18 02:30N 48°08' W 123°26'2 4.6
2017-Nov-18 02:00N 48°10' W 123°23'2 3.9
2017-Nov-18 01:30N 48°08' W 123°25'1 1.1
2017-Nov-18 01:00N 48°08' W 123°25'0 0.1
2017-Nov-18 00:30N 48°08' W 123°26'1 1.5
2017-Nov-17 23:59N 48°08' W 123°24'1 1.4
2017-Nov-17 23:26N 48°08' W 123°26'0 0.7
2017-Nov-17 23:00N 48°08' W 123°26'1 1.4
2017-Nov-17 22:30N 48°08' W 123°27'1 1.1
2017-Nov-17 21:32N 48°08' W 123°25'0 0.0
2017-Nov-17 21:24N 48°08' W 123°25'0 0.0
2017-Nov-17 20:59N 48°08' W 123°25'0 0.0
2017-Nov-17 18:41N 48°08' W 123°25'0 0.2
2017-Nov-17 18:30N 48°08' W 123°26'0 0.0
2017-Nov-17 17:57N 48°08' W 123°26'0 0.0
2017-Nov-17 17:30N 48°08' W 123°26'0 0.1
2017-Nov-17 16:59N 48°08' W 123°25'0 0.1
2017-Nov-17 16:29N 48°08' W 123°26'0 0.1
2017-Nov-17 16:00N 48°08' W 123°25'0 0.1
2017-Nov-17 15:30N 48°08' W 123°26'0 0.1
2017-Nov-17 15:00N 48°08' W 123°25'0 0.0
2017-Nov-17 14:27N 48°08' W 123°25'0 0.1
2017-Nov-17 13:58N 48°08' W 123°26'0 0.1
2017-Nov-17 13:22N 48°08' W 123°25'0 0.1
2017-Nov-17 12:56N 48°08' W 123°26'0 0.0
2017-Nov-17 10:08N 48°08' W 123°25'1 9.2
2017-Nov-17 10:00N 48°08' W 123°24'1 1.3
2017-Nov-17 09:30N 48°08' W 123°23'0 0.2
2017-Nov-17 09:00N 48°08' W 123°23'2 1.6
2017-Nov-17 07:56N 48°08' W 123°26'0 0.7
2017-Nov-17 07:30N 48°08' W 123°25'0 0.5
2017-Nov-17 07:00N 48°08' W 123°25'0 0.0
2017-Nov-17 06:30N 48°08' W 123°25'0 0.0
2017-Nov-17 06:00N 48°08' W 123°25'0 0.1
2017-Nov-17 05:31N 48°08' W 123°26'1 2.3
2017-Nov-17 05:00N 48°08' W 123°24'1 2.2
2017-Nov-17 04:30N 48°08' W 123°25'0 0.1
2017-Nov-17 04:00N 48°08' W 123°26'0 0.1
2017-Nov-17 03:31N 48°08' W 123°25'1 1.6
2017-Nov-17 03:00N 48°08' W 123°27'1 1.7
2017-Nov-17 02:30N 48°08' W 123°25'2 3.7
2017-Nov-17 02:00N 48°10' W 123°24'2 3.6
2017-Nov-17 01:29N 48°08' W 123°25'0 0.0
2017-Nov-17 00:58N 48°08' W 123°25'0 0.1
2017-Nov-17 00:28N 48°08' W 123°26'0 0.0
2017-Nov-16 16:06N 48°08' W 123°26'0 0.2
2017-Nov-16 15:55N 48°08' W 123°25'0 0.0
2017-Nov-16 14:58N 48°08' W 123°26'0 0.1
2017-Nov-16 14:30N 48°08' W 123°25'0 0.0
2017-Nov-16 13:02N 48°08' W 123°25'0 0.2
2017-Nov-16 12:56N 48°08' W 123°25'0 0.2
2017-Nov-16 12:31N 48°08' W 123°25'0 0.0
2017-Nov-16 09:44N 48°08' W 123°25'311.9
2017-Nov-16 09:30N 48°09' W 123°21'0 0.7
2017-Nov-16 09:01N 48°09' W 123°21'3 1.7
2017-Nov-16 07:16N 48°08' W 123°25'1 5.2
2017-Nov-16 07:00N 48°08' W 123°24'1 1.9
2017-Nov-16 06:19N 48°08' W 123°25'0 0.1
2017-Nov-16 05:58N 48°08' W 123°26'0 0.0
2017-Nov-16 05:30N 48°08' W 123°26'1 2.8
2017-Nov-16 05:00N 48°09' W 123°24'1 1.2
2017-Nov-16 04:31N 48°09' W 123°23'2 3.7
2017-Nov-16 04:00N 48°08' W 123°26'0 0.0
2017-Nov-16 03:30N 48°08' W 123°26'0 0.0
2017-Nov-16 03:00N 48°08' W 123°26'0 0.1
2017-Nov-16 02:30N 48°08' W 123°25'0 0.2
2017-Nov-16 02:00N 48°08' W 123°25'0 0.2
2017-Nov-16 01:31N 48°08' W 123°25'0 0.1
2017-Nov-16 01:00N 48°08' W 123°26'0 0.0
2017-Nov-16 00:24N 48°08' W 123°26'0 0.0
2017-Nov-15 23:48N 48°08' W 123°26'0 0.1
2017-Nov-15 23:14N 48°08' W 123°25'0 0.0
2017-Nov-15 20:53N 48°08' W 123°25'0 0.3
2017-Nov-15 20:30N 48°08' W 123°25'0 0.1
2017-Nov-15 19:34N 48°08' W 123°26'0 0.3
2017-Nov-15 19:26N 48°08' W 123°25'2 4.0
2017-Nov-15 19:00N 48°10' W 123°24'2 1.6
2017-Nov-15 17:54N 48°08' W 123°25'1 3.5
2017-Nov-15 17:31N 48°09' W 123°24'1 0.3
2017-Nov-15 13:04N 48°08' W 123°25'0 0.3
2017-Nov-15 12:57N 48°08' W 123°26'0 0.0
2017-Nov-15 12:29N 48°08' W 123°26'0 0.0
2017-Nov-15 11:59N 48°08' W 123°26'0 0.1
2017-Nov-15 11:30N 48°08' W 123°25'0 0.0
2017-Nov-15 10:53N 48°08' W 123°25'0 0.0
2017-Nov-15 05:17N 48°08' W 123°25'0 0.0
2017-Nov-15 04:57N 48°08' W 123°25'0 0.0
2017-Nov-15 04:30N 48°08' W 123°25'0 0.0
2017-Nov-15 04:00N 48°08' W 123°25'0 0.1
2017-Nov-15 03:29N 48°08' W 123°26'0 0.0
2017-Nov-15 02:56N 48°08' W 123°26'0 0.1
2017-Nov-15 02:29N 48°08' W 123°25'0 0.0
2017-Nov-15 02:00N 48°08' W 123°25'0 0.0
2017-Nov-15 01:28N 48°08' W 123°25'0 0.0
2017-Nov-15 01:00N 48°08' W 123°25'0 0.1
2017-Nov-15 00:29N 48°08' W 123°26'0 0.0
2017-Nov-14 15:06N 48°08' W 123°25'0 0.3
2017-Nov-14 14:59N 48°08' W 123°26'0 0.0
2017-Nov-14 14:30N 48°08' W 123°26'0 0.1
2017-Nov-14 14:00N 48°08' W 123°25'0 0.0
2017-Nov-14 13:30N 48°08' W 123°25'0 0.0
2017-Nov-14 12:59N 48°08' W 123°25'0 0.0
2017-Nov-14 12:30N 48°08' W 123°25'0 0.1
2017-Nov-14 12:00N 48°08' W 123°26'0 0.1
2017-Nov-14 11:30N 48°08' W 123°25'0 0.0
2017-Nov-14 11:00N 48°08' W 123°25'0 0.0
2017-Nov-14 10:30N 48°08' W 123°25'0 0.0
2017-Nov-14 10:00N 48°08' W 123°25'0 0.0
2017-Nov-14 01:24N 48°08' W 123°26'0 0.1
2017-Nov-14 00:55N 48°08' W 123°25'0 0.0
2017-Nov-14 00:25N 48°08' W 123°25'0 0.0
2017-Nov-13 22:44N 48°08' W 123°26'0 0.1
2017-Nov-13 22:18N 48°08' W 123°25'0 0.0
2017-Nov-13 01:18N 48°08' W 123°26'0 0.1
2017-Nov-13 00:56N 48°08' W 123°25'0 0.1
2017-Nov-13 00:28N 48°08' W 123°25'3 5.4
2017-Nov-12 23:59N 48°09' W 123°22'3 0.9
2017-Nov-12 21:06N 48°08' W 123°25'1 8.4
2017-Nov-12 21:00N 48°08' W 123°24'1 0.4
2017-Nov-12 19:13N 48°08' W 123°25'0 0.1
2017-Nov-12 18:54N 48°08' W 123°26'0 0.0
2017-Nov-12 18:26N 48°08' W 123°26'0 0.0
2017-Nov-12 17:58N 48°08' W 123°26'0 0.1
2017-Nov-12 17:23N 48°08' W 123°25'0 0.0
2017-Nov-12 16:59N 48°08' W 123°25'0 0.3
2017-Nov-12 16:30N 48°08' W 123°25'0 0.2
2017-Nov-12 15:54N 48°08' W 123°25'0 0.2
2017-Nov-12 15:31N 48°08' W 123°25'0 0.4
2017-Nov-12 15:00N 48°08' W 123°25'0 0.6
2017-Nov-12 14:29N 48°08' W 123°26'0 0.1
2017-Nov-12 14:01N 48°08' W 123°25'0 0.1
2017-Nov-12 13:30N 48°08' W 123°26'2 3.1
2017-Nov-12 13:00N 48°09' W 123°23'2 2.7
2017-Nov-12 12:26N 48°08' W 123°26'0 0.0
2017-Nov-12 12:00N 48°08' W 123°26'0 0.1
2017-Nov-12 11:30N 48°08' W 123°25'1 2.8
2017-Nov-12 11:01N 48°08' W 123°23'1 2.7
2017-Nov-12 10:29N 48°08' W 123°25'1 1.7
2017-Nov-12 10:00N 48°09' W 123°24'1 1.9
2017-Nov-12 09:30N 48°10' W 123°25'1 2.1
2017-Nov-12 08:54N 48°08' W 123°25'0 0.2
2017-Nov-12 08:30N 48°08' W 123°25'0 0.1
2017-Nov-12 08:01N 48°08' W 123°25'2 3.1
2017-Nov-12 07:29N 48°09' W 123°23'2 2.8
2017-Nov-12 06:54N 48°08' W 123°26'2 5.4
2017-Nov-12 06:31N 48°08' W 123°23'2 3.1
2017-Nov-12 05:49N 48°08' W 123°26'0 0.5
2017-Nov-12 05:30N 48°08' W 123°25'0 0.2
2017-Nov-12 04:52N 48°08' W 123°25'0 0.0
2017-Nov-12 01:52N 48°08' W 123°26'0 0.1
2017-Nov-12 01:30N 48°08' W 123°25'0 0.1
2017-Nov-12 01:00N 48°08' W 123°26'0 0.1
2017-Nov-12 00:29N 48°08' W 123°25'0 0.0
2017-Nov-11 23:57N 48°08' W 123°25'3 6.2
2017-Nov-11 23:30N 48°09' W 123°21'2 3.0
2017-Nov-11 23:00N 48°08' W 123°24'1 2.6
2017-Nov-11 22:30N 48°08' W 123°25'0 0.1
2017-Nov-11 21:54N 48°08' W 123°25'0 0.0
2017-Nov-11 21:29N 48°08' W 123°25'0 0.1
2017-Nov-11 20:59N 48°08' W 123°26'0 0.1
2017-Nov-11 20:29N 48°08' W 123°25'0 0.0
2017-Nov-11 19:59N 48°08' W 123°25'0 0.0
2017-Nov-11 19:30N 48°08' W 123°25'0 0.1
2017-Nov-11 19:00N 48°08' W 123°26'0 0.0
2017-Nov-11 18:27N 48°08' W 123°26'1 2.6
2017-Nov-11 18:01N 48°09' W 123°24'1 2.3
2017-Nov-11 17:30N 48°08' W 123°26'0 0.0
2017-Nov-11 17:00N 48°08' W 123°26'0 0.1
2017-Nov-11 16:30N 48°08' W 123°25'0 0.1
2017-Nov-11 16:00N 48°08' W 123°26'0 0.0
2017-Nov-11 15:30N 48°08' W 123°26'0 0.0
2017-Nov-11 15:00N 48°08' W 123°26'1 2.2
2017-Nov-11 14:30N 48°09' W 123°24'1 2.1
2017-Nov-11 14:00N 48°08' W 123°25'1 2.9
2017-Nov-11 13:30N 48°10' W 123°24'1 2.9
2017-Nov-11 13:00N 48°08' W 123°25'0 0.1
2017-Nov-11 12:30N 48°08' W 123°26'0 0.0
2017-Nov-11 12:00N 48°08' W 123°26'0 0.1
2017-Nov-11 11:30N 48°08' W 123°25'0 0.1
2017-Nov-11 11:00N 48°08' W 123°26'0 0.0
2017-Nov-11 10:30N 48°08' W 123°26'0 0.1
2017-Nov-11 10:00N 48°08' W 123°25'0 0.1
2017-Nov-11 09:30N 48°08' W 123°26'2 3.7
2017-Nov-11 09:00N 48°08' W 123°23'2 3.5
2017-Nov-11 08:31N 48°08' W 123°25'0 0.3
2017-Nov-11 08:00N 48°08' W 123°25'1 2.3
2017-Nov-11 07:30N 48°09' W 123°24'1 1.9
2017-Nov-11 06:54N 48°08' W 123°25'1 3.6
2017-Nov-11 06:30N 48°08' W 123°23'1 1.8
2017-Nov-11 05:41N 48°08' W 123°26'0 0.2
2017-Nov-11 05:25N 48°08' W 123°25'2 3.7
2017-Nov-11 05:00N 48°10' W 123°25'2 3.1
2017-Nov-11 04:30N 48°08' W 123°25'0 0.1
2017-Nov-11 03:50N 48°08' W 123°26'0 0.1
2017-Nov-11 03:30N 48°08' W 123°25'0 0.0
2017-Nov-11 03:00N 48°08' W 123°25'0 0.1
2017-Nov-11 02:30N 48°08' W 123°26'0 0.1
2017-Nov-11 02:00N 48°08' W 123°25'0 0.0
2017-Nov-11 01:30N 48°08' W 123°25'0 0.1
2017-Nov-11 00:58N 48°08' W 123°26'0 0.1
2017-Nov-11 00:30N 48°08' W 123°25'0 0.1
2017-Nov-11 00:00N 48°08' W 123°26'0 0.0
2017-Nov-10 23:30N 48°08' W 123°26'0 0.0
2017-Nov-10 22:59N 48°08' W 123°26'1 2.3
2017-Nov-10 22:30N 48°08' W 123°24'1 2.2
2017-Nov-10 22:00N 48°08' W 123°26'0 0.0
2017-Nov-10 21:30N 48°08' W 123°26'0 0.0
2017-Nov-10 20:59N 48°08' W 123°26'0 0.1
2017-Nov-10 20:29N 48°08' W 123°25'0 0.1
2017-Nov-10 20:00N 48°08' W 123°26'0 0.0
2017-Nov-10 19:30N 48°08' W 123°26'0 0.0
2017-Nov-10 18:59N 48°08' W 123°26'0 0.0
2017-Nov-10 18:30N 48°08' W 123°26'0 0.0
2017-Nov-10 18:00N 48°08' W 123°26'1 2.0
2017-Nov-10 17:19N 48°08' W 123°27'310.1
2017-Nov-10 17:01N 48°10' W 123°24'2 3.3
2017-Nov-10 16:30N 48°08' W 123°25'0 0.1
2017-Nov-10 15:58N 48°08' W 123°26'0 0.0
2017-Nov-10 15:30N 48°08' W 123°26'0 0.0
2017-Nov-10 15:00N 48°08' W 123°26'1 2.2
2017-Nov-10 14:30N 48°08' W 123°24'1 0.5
2017-Nov-10 12:28N 48°08' W 123°25'0 0.1
2017-Nov-10 12:00N 48°08' W 123°26'0 0.1
2017-Nov-10 11:26N 48°08' W 123°25'0 0.1
2017-Nov-10 10:58N 48°08' W 123°26'0 0.1
2017-Nov-10 10:30N 48°08' W 123°25'0 0.0
2017-Nov-10 10:00N 48°08' W 123°25'0 0.1
2017-Nov-10 09:30N 48°08' W 123°26'0 0.0
2017-Nov-10 09:00N 48°08' W 123°26'0 0.1
2017-Nov-10 08:30N 48°08' W 123°25'0 0.0
2017-Nov-10 08:00N 48°08' W 123°25'0 0.1
2017-Nov-10 07:30N 48°08' W 123°26'0 0.1
2017-Nov-10 07:00N 48°08' W 123°25'0 0.0
2017-Nov-10 06:30N 48°08' W 123°25'0 0.1
2017-Nov-10 05:58N 48°08' W 123°26'0 0.1
2017-Nov-10 05:30N 48°08' W 123°25'0 0.0
2017-Nov-10 01:14N 48°08' W 123°25'0 0.0
2017-Nov-10 00:21N 48°08' W 123°26'0 0.0
2017-Nov-09 23:58N 48°08' W 123°26'0 0.0
2017-Nov-09 23:30N 48°08' W 123°26'0 0.1
2017-Nov-09 22:59N 48°08' W 123°25'0 0.1
2017-Nov-09 22:30N 48°08' W 123°26'0 0.1
2017-Nov-09 21:49N 48°08' W 123°25'0 0.0
2017-Nov-09 21:30N 48°08' W 123°25'0 0.1
2017-Nov-09 20:51N 48°08' W 123°26'0 0.1
2017-Nov-09 20:11N 48°08' W 123°25'0 0.2
2017-Nov-09 19:58N 48°08' W 123°26'0 0.1
2017-Nov-09 19:26N 48°08' W 123°25'0 0.1
2017-Nov-09 19:00N 48°08' W 123°26'0 0.0
2017-Nov-09 18:28N 48°08' W 123°26'0 0.0
2017-Nov-09 17:52N 48°08' W 123°26'0 0.0
2017-Nov-09 17:22N 48°08' W 123°26'0 0.0
2017-Nov-09 16:58N 48°08' W 123°26'0 0.0
2017-Nov-09 15:36N 48°08' W 123°25'0 0.3
2017-Nov-09 15:28N 48°08' W 123°26'0 0.0
2017-Nov-09 10:40N 48°08' W 123°25'0 0.0
2017-Nov-09 10:23N 48°08' W 123°25'0 0.0
2017-Nov-09 10:00N 48°08' W 123°25'0 0.1
2017-Nov-09 09:30N 48°08' W 123°26'0 0.1
2017-Nov-09 09:00N 48°08' W 123°25'0 0.1
2017-Nov-09 08:30N 48°08' W 123°26'0 0.1
2017-Nov-09 08:00N 48°08' W 123°25'0 0.0
2017-Nov-09 07:30N 48°08' W 123°25'0 0.0
2017-Nov-09 07:00N 48°08' W 123°25'0 0.0
2017-Nov-09 06:30N 48°08' W 123°25'0 0.1
2017-Nov-09 05:59N 48°08' W 123°26'0 0.1
2017-Nov-09 05:30N 48°08' W 123°25'0 0.0
2017-Nov-09 04:56N 48°08' W 123°25'0 0.0
2017-Nov-09 04:26N 48°08' W 123°25'0 0.1
2017-Nov-09 03:55N 48°08' W 123°26'0 0.0
2017-Nov-09 03:22N 48°08' W 123°26'0 0.1
2017-Nov-09 02:55N 48°08' W 123°25'0 0.1
2017-Nov-09 02:19N 48°08' W 123°26'0 0.1
2017-Nov-09 01:56N 48°08' W 123°25'0 0.0
2017-Nov-09 00:54N 48°08' W 123°26'  
Track history (hours):
 
Tides and Currents Weather Stations Pressure Air Temp Water Temp Dewpoint Dewpoint Depression Visibility Wind Speed Wind Dir Waves Ship Positions

Puget Sound

Owner: PUGET SOUND PILOTS, SEATTLE, WA. More information available from US FCC via Universal Licensing System and Coast Guard Vessel Documentation Center.

Last reported at 2017-Nov-18 18:11 UTC. Time now 2017-Nov-18 19:42 UTC.
Position N 48°08' W 123°26'.

Length 23 m; draft 1 m.

Type: Pilot. MMSI: 366825190.

Date/timePositionNaut miles runAvg speedWind from/ knotsBaromVisibWave heightAir tempDewpointWater temp
2017-Nov-18 18:11N 48°08' W 123°26'0 0.1
2017-Nov-18 17:41N 48°08' W 123°25'0 0.0
2017-Nov-18 17:29N 48°08' W 123°25'0 0.0
2017-Nov-18 17:00N 48°08' W 123°25'0 0.0
2017-Nov-18 16:29N 48°08' W 123°25'0 0.0
2017-Nov-18 16:00N 48°08' W 123°25'0 0.1
2017-Nov-18 15:30N 48°08' W 123°26'0 0.0
2017-Nov-18 14:59N 48°08' W 123°26'0 0.1
2017-Nov-18 14:30N 48°08' W 123°25'0 0.1
2017-Nov-18 14:00N 48°08' W 123°26'2 5.0
2017-Nov-18 13:30N 48°09' W 123°22'2 4.9
2017-Nov-18 13:00N 48°08' W 123°26'0 0.0
2017-Nov-18 12:29N 48°08' W 123°26'0 0.0
2017-Nov-18 11:59N 48°08' W 123°26'0 0.0
2017-Nov-18 11:24N 48°08' W 123°26'2 6.3
2017-Nov-18 11:00N 48°09' W 123°22'2 4.9
2017-Nov-18 10:30N 48°08' W 123°26'0 0.0
2017-Nov-18 10:00N 48°08' W 123°26'0 0.1
2017-Nov-18 09:30N 48°08' W 123°25'3 5.3
2017-Nov-18 09:00N 48°09' W 123°22'3 5.2
2017-Nov-18 08:30N 48°08' W 123°25'1 2.0
2017-Nov-18 08:00N 48°08' W 123°27'1 2.0
2017-Nov-18 07:30N 48°08' W 123°25'0 0.1
2017-Nov-18 07:01N 48°08' W 123°26'2 4.5
2017-Nov-18 06:29N 48°08' W 123°22'2 4.7
2017-Nov-18 06:00N 48°08' W 123°25'0 0.1
2017-Nov-18 05:30N 48°08' W 123°26'2 4.8
2017-Nov-18 05:01N 48°09' W 123°22'2 4.7
2017-Nov-18 04:30N 48°08' W 123°25'0 0.0
2017-Nov-18 04:00N 48°08' W 123°25'0 0.0
2017-Nov-18 03:30N 48°08' W 123°25'0 0.1
2017-Nov-18 03:00N 48°08' W 123°26'0 0.0
2017-Nov-18 02:30N 48°08' W 123°26'2 4.6
2017-Nov-18 02:00N 48°10' W 123°23'2 3.9
2017-Nov-18 01:30N 48°08' W 123°25'1 1.1
2017-Nov-18 01:00N 48°08' W 123°25'0 0.1
2017-Nov-18 00:30N 48°08' W 123°26'1 1.5
2017-Nov-17 23:59N 48°08' W 123°24'1 1.4
2017-Nov-17 23:26N 48°08' W 123°26'0 0.7
2017-Nov-17 23:00N 48°08' W 123°26'1 1.4
2017-Nov-17 22:30N 48°08' W 123°27'1 1.1
2017-Nov-17 21:32N 48°08' W 123°25'0 0.0
2017-Nov-17 21:24N 48°08' W 123°25'0 0.0
2017-Nov-17 20:59N 48°08' W 123°25'0 0.0
2017-Nov-17 18:41N 48°08' W 123°25'0 0.2
2017-Nov-17 18:30N 48°08' W 123°26'0 0.0
2017-Nov-17 17:57N 48°08' W 123°26'0 0.0
2017-Nov-17 17:30N 48°08' W 123°26'0 0.1
2017-Nov-17 16:59N 48°08' W 123°25'0 0.1
2017-Nov-17 16:29N 48°08' W 123°26'0 0.1
2017-Nov-17 16:00N 48°08' W 123°25'0 0.1
2017-Nov-17 15:30N 48°08' W 123°26'0 0.1
2017-Nov-17 15:00N 48°08' W 123°25'0 0.0
2017-Nov-17 14:27N 48°08' W 123°25'0 0.1
2017-Nov-17 13:58N 48°08' W 123°26'0 0.1
2017-Nov-17 13:22N 48°08' W 123°25'0 0.1
2017-Nov-17 12:56N 48°08' W 123°26'0 0.0
2017-Nov-17 10:08N 48°08' W 123°25'1 9.2
2017-Nov-17 10:00N 48°08' W 123°24'1 1.3
2017-Nov-17 09:30N 48°08' W 123°23'0 0.2
2017-Nov-17 09:00N 48°08' W 123°23'2 1.6
2017-Nov-17 07:56N 48°08' W 123°26'0 0.7
2017-Nov-17 07:30N 48°08' W 123°25'0 0.5
2017-Nov-17 07:00N 48°08' W 123°25'0 0.0
2017-Nov-17 06:30N 48°08' W 123°25'0 0.0
2017-Nov-17 06:00N 48°08' W 123°25'0 0.1
2017-Nov-17 05:31N 48°08' W 123°26'1 2.3
2017-Nov-17 05:00N 48°08' W 123°24'1 2.2
2017-Nov-17 04:30N 48°08' W 123°25'0 0.1
2017-Nov-17 04:00N 48°08' W 123°26'0 0.1
2017-Nov-17 03:31N 48°08' W 123°25'1 1.6
2017-Nov-17 03:00N 48°08' W 123°27'1 1.7
2017-Nov-17 02:30N 48°08' W 123°25'2 3.7
2017-Nov-17 02:00N 48°10' W 123°24'2 3.6
2017-Nov-17 01:29N 48°08' W 123°25'0 0.0
2017-Nov-17 00:58N 48°08' W 123°25'0 0.1
2017-Nov-17 00:28N 48°08' W 123°26'0 0.0
2017-Nov-16 16:06N 48°08' W 123°26'0 0.2
2017-Nov-16 15:55N 48°08' W 123°25'0 0.0
2017-Nov-16 14:58N 48°08' W 123°26'0 0.1
2017-Nov-16 14:30N 48°08' W 123°25'0 0.0
2017-Nov-16 13:02N 48°08' W 123°25'0 0.2
2017-Nov-16 12:56N 48°08' W 123°25'0 0.2
2017-Nov-16 12:31N 48°08' W 123°25'0 0.0
2017-Nov-16 09:44N 48°08' W 123°25'311.9
2017-Nov-16 09:30N 48°09' W 123°21'0 0.7
2017-Nov-16 09:01N 48°09' W 123°21'3 1.7
2017-Nov-16 07:16N 48°08' W 123°25'1 5.2
2017-Nov-16 07:00N 48°08' W 123°24'1 1.9
2017-Nov-16 06:19N 48°08' W 123°25'0 0.1
2017-Nov-16 05:58N 48°08' W 123°26'0 0.0
2017-Nov-16 05:30N 48°08' W 123°26'1 2.8
2017-Nov-16 05:00N 48°09' W 123°24'1 1.2
2017-Nov-16 04:31N 48°09' W 123°23'2 3.7
2017-Nov-16 04:00N 48°08' W 123°26'0 0.0
2017-Nov-16 03:30N 48°08' W 123°26'0 0.0
2017-Nov-16 03:00N 48°08' W 123°26'0 0.1
2017-Nov-16 02:30N 48°08' W 123°25'0 0.2
2017-Nov-16 02:00N 48°08' W 123°25'0 0.2
2017-Nov-16 01:31N 48°08' W 123°25'0 0.1
2017-Nov-16 01:00N 48°08' W 123°26'0 0.0
2017-Nov-16 00:24N 48°08' W 123°26'0 0.0
2017-Nov-15 23:48N 48°08' W 123°26'0 0.1
2017-Nov-15 23:14N 48°08' W 123°25'0 0.0
2017-Nov-15 20:53N 48°08' W 123°25'0 0.3
2017-Nov-15 20:30N 48°08' W 123°25'0 0.1
2017-Nov-15 19:34N 48°08' W 123°26'0 0.3
2017-Nov-15 19:26N 48°08' W 123°25'2 4.0
2017-Nov-15 19:00N 48°10' W 123°24'2 1.6
2017-Nov-15 17:54N 48°08' W 123°25'1 3.5
2017-Nov-15 17:31N 48°09' W 123°24'1 0.3
2017-Nov-15 13:04N 48°08' W 123°25'0 0.3
2017-Nov-15 12:57N 48°08' W 123°26'0 0.0
2017-Nov-15 12:29N 48°08' W 123°26'0 0.0
2017-Nov-15 11:59N 48°08' W 123°26'0 0.1
2017-Nov-15 11:30N 48°08' W 123°25'0 0.0
2017-Nov-15 10:53N 48°08' W 123°25'0 0.0
2017-Nov-15 05:17N 48°08' W 123°25'0 0.0
2017-Nov-15 04:57N 48°08' W 123°25'0 0.0
2017-Nov-15 04:30N 48°08' W 123°25'0 0.0
2017-Nov-15 04:00N 48°08' W 123°25'0 0.1
2017-Nov-15 03:29N 48°08' W 123°26'0 0.0
2017-Nov-15 02:56N 48°08' W 123°26'0 0.1
2017-Nov-15 02:29N 48°08' W 123°25'0 0.0
2017-Nov-15 02:00N 48°08' W 123°25'0 0.0
2017-Nov-15 01:28N 48°08' W 123°25'0 0.0
2017-Nov-15 01:00N 48°08' W 123°25'0 0.1
2017-Nov-15 00:29N 48°08' W 123°26'0 0.0
2017-Nov-14 15:06N 48°08' W 123°25'0 0.3
2017-Nov-14 14:59N 48°08' W 123°26'0 0.0
2017-Nov-14 14:30N 48°08' W 123°26'0 0.1
2017-Nov-14 14:00N 48°08' W 123°25'0 0.0
2017-Nov-14 13:30N 48°08' W 123°25'0 0.0
2017-Nov-14 12:59N 48°08' W 123°25'0 0.0
2017-Nov-14 12:30N 48°08' W 123°25'0 0.1
2017-Nov-14 12:00N 48°08' W 123°26'0 0.1
2017-Nov-14 11:30N 48°08' W 123°25'0 0.0
2017-Nov-14 11:00N 48°08' W 123°25'0 0.0
2017-Nov-14 10:30N 48°08' W 123°25'0 0.0
2017-Nov-14 10:00N 48°08' W 123°25'0 0.0
2017-Nov-14 01:24N 48°08' W 123°26'0 0.1
2017-Nov-14 00:55N 48°08' W 123°25'0 0.0
2017-Nov-14 00:25N 48°08' W 123°25'0 0.0
2017-Nov-13 22:44N 48°08' W 123°26'0 0.1
2017-Nov-13 22:18N 48°08' W 123°25'0 0.0
2017-Nov-13 01:18N 48°08' W 123°26'0 0.1
2017-Nov-13 00:56N 48°08' W 123°25'0 0.1
2017-Nov-13 00:28N 48°08' W 123°25'3 5.4
2017-Nov-12 23:59N 48°09' W 123°22'3 0.9
2017-Nov-12 21:06N 48°08' W 123°25'1 8.4
2017-Nov-12 21:00N 48°08' W 123°24'1 0.4
2017-Nov-12 19:13N 48°08' W 123°25'0 0.1
2017-Nov-12 18:54N 48°08' W 123°26'0 0.0
2017-Nov-12 18:26N 48°08' W 123°26'0 0.0
2017-Nov-12 17:58N 48°08' W 123°26'0 0.1
2017-Nov-12 17:23N 48°08' W 123°25'0 0.0
2017-Nov-12 16:59N 48°08' W 123°25'0 0.3
2017-Nov-12 16:30N 48°08' W 123°25'0 0.2
2017-Nov-12 15:54N 48°08' W 123°25'0 0.2
2017-Nov-12 15:31N 48°08' W 123°25'0 0.4
2017-Nov-12 15:00N 48°08' W 123°25'0 0.6
2017-Nov-12 14:29N 48°08' W 123°26'0 0.1
2017-Nov-12 14:01N 48°08' W 123°25'0 0.1
2017-Nov-12 13:30N 48°08' W 123°26'2 3.1
2017-Nov-12 13:00N 48°09' W 123°23'2 2.7
2017-Nov-12 12:26N 48°08' W 123°26'0 0.0
2017-Nov-12 12:00N 48°08' W 123°26'0 0.1
2017-Nov-12 11:30N 48°08' W 123°25'1 2.8
2017-Nov-12 11:01N 48°08' W 123°23'1 2.7
2017-Nov-12 10:29N 48°08' W 123°25'1 1.7
2017-Nov-12 10:00N 48°09' W 123°24'1 1.9
2017-Nov-12 09:30N 48°10' W 123°25'1 2.1
2017-Nov-12 08:54N 48°08' W 123°25'0 0.2
2017-Nov-12 08:30N 48°08' W 123°25'0 0.1
2017-Nov-12 08:01N 48°08' W 123°25'2 3.1
2017-Nov-12 07:29N 48°09' W 123°23'2 2.8
2017-Nov-12 06:54N 48°08' W 123°26'2 5.4
2017-Nov-12 06:31N 48°08' W 123°23'2 3.1
2017-Nov-12 05:49N 48°08' W 123°26'0 0.5
2017-Nov-12 05:30N 48°08' W 123°25'0 0.2
2017-Nov-12 04:52N 48°08' W 123°25'0 0.0
2017-Nov-12 01:52N 48°08' W 123°26'0 0.1
2017-Nov-12 01:30N 48°08' W 123°25'0 0.1
2017-Nov-12 01:00N 48°08' W 123°26'0 0.1
2017-Nov-12 00:29N 48°08' W 123°25'0 0.0
2017-Nov-11 23:57N 48°08' W 123°25'3 6.2
2017-Nov-11 23:30N 48°09' W 123°21'2 3.0
2017-Nov-11 23:00N 48°08' W 123°24'1 2.6
2017-Nov-11 22:30N 48°08' W 123°25'0 0.1
2017-Nov-11 21:54N 48°08' W 123°25'0 0.0
2017-Nov-11 21:29N 48°08' W 123°25'0 0.1
2017-Nov-11 20:59N 48°08' W 123°26'0 0.1
2017-Nov-11 20:29N 48°08' W 123°25'0 0.0
2017-Nov-11 19:59N 48°08' W 123°25'0 0.0
2017-Nov-11 19:30N 48°08' W 123°25'0 0.1
2017-Nov-11 19:00N 48°08' W 123°26'0 0.0
2017-Nov-11 18:27N 48°08' W 123°26'1 2.6
2017-Nov-11 18:01N 48°09' W 123°24'1 2.3
2017-Nov-11 17:30N 48°08' W 123°26'0 0.0
2017-Nov-11 17:00N 48°08' W 123°26'0 0.1
2017-Nov-11 16:30N 48°08' W 123°25'0 0.1
2017-Nov-11 16:00N 48°08' W 123°26'0 0.0
2017-Nov-11 15:30N 48°08' W 123°26'0 0.0
2017-Nov-11 15:00N 48°08' W 123°26'1 2.2
2017-Nov-11 14:30N 48°09' W 123°24'1 2.1
2017-Nov-11 14:00N 48°08' W 123°25'1 2.9
2017-Nov-11 13:30N 48°10' W 123°24'1 2.9
2017-Nov-11 13:00N 48°08' W 123°25'0 0.1
2017-Nov-11 12:30N 48°08' W 123°26'0 0.0
2017-Nov-11 12:00N 48°08' W 123°26'0 0.1
2017-Nov-11 11:30N 48°08' W 123°25'0 0.1
2017-Nov-11 11:00N 48°08' W 123°26'0 0.0
2017-Nov-11 10:30N 48°08' W 123°26'0 0.1
2017-Nov-11 10:00N 48°08' W 123°25'0 0.1
2017-Nov-11 09:30N 48°08' W 123°26'2 3.7
2017-Nov-11 09:00N 48°08' W 123°23'2 3.5
2017-Nov-11 08:31N 48°08' W 123°25'0 0.3
2017-Nov-11 08:00N 48°08' W 123°25'1 2.3
2017-Nov-11 07:30N 48°09' W 123°24'1 1.9
2017-Nov-11 06:54N 48°08' W 123°25'1 3.6
2017-Nov-11 06:30N 48°08' W 123°23'1 1.8
2017-Nov-11 05:41N 48°08' W 123°26'0 0.2
2017-Nov-11 05:25N 48°08' W 123°25'2 3.7
2017-Nov-11 05:00N 48°10' W 123°25'2 3.1
2017-Nov-11 04:30N 48°08' W 123°25'0 0.1
2017-Nov-11 03:50N 48°08' W 123°26'0 0.1
2017-Nov-11 03:30N 48°08' W 123°25'0 0.0
2017-Nov-11 03:00N 48°08' W 123°25'0 0.1
2017-Nov-11 02:30N 48°08' W 123°26'0 0.1
2017-Nov-11 02:00N 48°08' W 123°25'0 0.0
2017-Nov-11 01:30N 48°08' W 123°25'0 0.1
2017-Nov-11 00:58N 48°08' W 123°26'0 0.1
2017-Nov-11 00:30N 48°08' W 123°25'0 0.1
2017-Nov-11 00:00N 48°08' W 123°26'0 0.0
2017-Nov-10 23:30N 48°08' W 123°26'0 0.0
2017-Nov-10 22:59N 48°08' W 123°26'1 2.3
2017-Nov-10 22:30N 48°08' W 123°24'1 2.2
2017-Nov-10 22:00N 48°08' W 123°26'0 0.0
2017-Nov-10 21:30N 48°08' W 123°26'0 0.0
2017-Nov-10 20:59N 48°08' W 123°26'0 0.1
2017-Nov-10 20:29N 48°08' W 123°25'0 0.1
2017-Nov-10 20:00N 48°08' W 123°26'0 0.0
2017-Nov-10 19:30N 48°08' W 123°26'0 0.0
2017-Nov-10 18:59N 48°08' W 123°26'0 0.0
2017-Nov-10 18:30N 48°08' W 123°26'0 0.0
2017-Nov-10 18:00N 48°08' W 123°26'1 2.0
2017-Nov-10 17:19N 48°08' W 123°27'310.1
2017-Nov-10 17:01N 48°10' W 123°24'2 3.3
2017-Nov-10 16:30N 48°08' W 123°25'0 0.1
2017-Nov-10 15:58N 48°08' W 123°26'0 0.0
2017-Nov-10 15:30N 48°08' W 123°26'0 0.0
2017-Nov-10 15:00N 48°08' W 123°26'1 2.2
2017-Nov-10 14:30N 48°08' W 123°24'1 0.5
2017-Nov-10 12:28N 48°08' W 123°25'0 0.1
2017-Nov-10 12:00N 48°08' W 123°26'0 0.1
2017-Nov-10 11:26N 48°08' W 123°25'0 0.1
2017-Nov-10 10:58N 48°08' W 123°26'0 0.1
2017-Nov-10 10:30N 48°08' W 123°25'0 0.0
2017-Nov-10 10:00N 48°08' W 123°25'0 0.1
2017-Nov-10 09:30N 48°08' W 123°26'0 0.0
2017-Nov-10 09:00N 48°08' W 123°26'0 0.1
2017-Nov-10 08:30N 48°08' W 123°25'0 0.0
2017-Nov-10 08:00N 48°08' W 123°25'0 0.1
2017-Nov-10 07:30N 48°08' W 123°26'0 0.1
2017-Nov-10 07:00N 48°08' W 123°25'0 0.0
2017-Nov-10 06:30N 48°08' W 123°25'0 0.1
2017-Nov-10 05:58N 48°08' W 123°26'0 0.1
2017-Nov-10 05:30N 48°08' W 123°25'0 0.0
2017-Nov-10 01:14N 48°08' W 123°25'0 0.0
2017-Nov-10 00:21N 48°08' W 123°26'0 0.0
2017-Nov-09 23:58N 48°08' W 123°26'0 0.0
2017-Nov-09 23:30N 48°08' W 123°26'0 0.1
2017-Nov-09 22:59N 48°08' W 123°25'0 0.1
2017-Nov-09 22:30N 48°08' W 123°26'0 0.1
2017-Nov-09 21:49N 48°08' W 123°25'0 0.0
2017-Nov-09 21:30N 48°08' W 123°25'0 0.1
2017-Nov-09 20:51N 48°08' W 123°26'0 0.1
2017-Nov-09 20:11N 48°08' W 123°25'0 0.2
2017-Nov-09 19:58N 48°08' W 123°26'0 0.1
2017-Nov-09 19:26N 48°08' W 123°25'0 0.1
2017-Nov-09 19:00N 48°08' W 123°26'0 0.0
2017-Nov-09 18:28N 48°08' W 123°26'0 0.0
2017-Nov-09 17:52N 48°08' W 123°26'0 0.0
2017-Nov-09 17:22N 48°08' W 123°26'0 0.0
2017-Nov-09 16:58N 48°08' W 123°26'0 0.0
2017-Nov-09 15:36N 48°08' W 123°25'0 0.3
2017-Nov-09 15:28N 48°08' W 123°26'0 0.0
2017-Nov-09 10:40N 48°08' W 123°25'0 0.0
2017-Nov-09 10:23N 48°08' W 123°25'0 0.0
2017-Nov-09 10:00N 48°08' W 123°25'0 0.1
2017-Nov-09 09:30N 48°08' W 123°26'0 0.1
2017-Nov-09 09:00N 48°08' W 123°25'0 0.1
2017-Nov-09 08:30N 48°08' W 123°26'0 0.1
2017-Nov-09 08:00N 48°08' W 123°25'0 0.0
2017-Nov-09 07:30N 48°08' W 123°25'0 0.0
2017-Nov-09 07:00N 48°08' W 123°25'0 0.0
2017-Nov-09 06:30N 48°08' W 123°25'0 0.1
2017-Nov-09 05:59N 48°08' W 123°26'0 0.1
2017-Nov-09 05:30N 48°08' W 123°25'0 0.0
2017-Nov-09 04:56N 48°08' W 123°25'0 0.0
2017-Nov-09 04:26N 48°08' W 123°25'0 0.1
2017-Nov-09 03:55N 48°08' W 123°26'0 0.0
2017-Nov-09 03:22N 48°08' W 123°26'0 0.1
2017-Nov-09 02:55N 48°08' W 123°25'0 0.1
2017-Nov-09 02:19N 48°08' W 123°26'0 0.1
2017-Nov-09 01:56N 48°08' W 123°25'0 0.0
2017-Nov-09 00:54N 48°08' W 123°26'  

Dump ship's entire track history